ADDS METAR Data INFO
IDs: Format: Raw Decoded Include TAF

Data at: 0503 UTC 18 Feb 2018

KOAK 180453Z 25006KT 8SM FEW010 11/10 A3004 RMK AO2 SLP172 T01110100
KOAK 180353Z COR 27008KT 10SM FEW010 12/10 A3005 RMK AO2 SLP176 T01170100
KOAK 180253Z 26012KT 10SM FEW010 12/10 A3006 RMK AO2 SLP177 T01170100 56007
KOAK 180153Z 27008KT 10SM FEW010 13/09 A3006 RMK AO2 SLP179 T01280094
KOAK 180053Z 29009KT 10SM CLR 16/07 A3007 RMK AO2 SLP181 T01560072
KOAK 172353Z 27009KT 10SM CLR 17/09 A3008 RMK AO2 SLP185 T01670089 10183 20128 56019
KOAK 172253Z 27007KT 10SM CLR 18/04 A3008 RMK AO2 SLP187 T01830044
KOAK 172153Z 25006KT 10SM CLR 16/08 A3010 RMK AO2 SLP192 T01610078
KOAK 172053Z 28006KT 10SM CLR 17/04 A3013 RMK AO2 SLP203 T01720044 58018
KOAK 171953Z 28009KT 10SM CLR 14/05 A3016 RMK AO2 SLP213 T01440050
KOAK 171853Z 22005KT 10SM CLR 13/06 A3017 RMK AO2 SLP217 T01330061
KOAK 171753Z VRB03KT 10SM CLR 13/03 A3019 RMK AO2 SLP222 T01330028 10133 20044 53008
KOAK 171653Z 00000KT 10SM CLR 12/03 A3019 RMK AO2 SLP223 T01170028
KOAK 171553Z 12005KT 10SM FEW180 07/03 A3016 RMK AO2 SLP211 T00670033
KOAK 171453Z 03003KT 10SM FEW180 05/02 A3016 RMK AO2 SLP213 T00500017 55000
KOAK 171353Z 00000KT 10SM CLR 05/02 A3016 RMK AO2 SLP210 T00500017
KOAK 171253Z 03004KT 10SM CLR 06/02 A3016 RMK AO2 SLP212 T00560017
KOAK 171153Z 04004KT 10SM CLR 06/02 A3017 RMK AO2 SLP214 T00560017 10106 20056 58011
KOAK 171053Z 00000KT 10SM CLR 06/02 A3018 RMK AO2 SLP219 T00610022
KOAK 170953Z 08003KT 10SM CLR 08/02 A3019 RMK AO2 SLP223 T00780022
KOAK 170853Z 07003KT 10SM CLR 07/03 A3020 RMK AO2 SLP225 T00720028 52002
KOAK 170753Z 00000KT 10SM CLR 08/04 A3019 RMK AO2 SLP223 T00830039 401670033
KOAK 170653Z 13003KT 10SM CLR 09/06 A3020 RMK AO2 SLP225 T00940056
KOAK 170553Z 00000KT 10SM CLR 09/04 A3019 RMK AO2 SLP223 T00890044 10161 20083 53007
KOAK 170453Z 02003KT 10SM CLR 10/03 A3018 RMK AO2 SLP219 T01000033
KOAK 170353Z 00000KT 10SM CLR 12/04 A3018 RMK AO2 SLP219 T01220044
KOAK 170253Z 35004KT 10SM FEW200 12/04 A3017 RMK AO2 SLP216 T01220039 53007
KOAK 170153Z 30008KT 10SM FEW200 13/07 A3016 RMK AO2 SLP211 T01280067
KOAK 170053Z 29007KT 10SM SCT200 16/07 A3015 RMK AO2 SLP208 T01610072
KOAK 162353Z 23007KT 10SM FEW200 15/06 A3015 RMK AO2 SLP209 T01500061 10167 20106 56023
KOAK 162253Z 27006KT 10SM CLR 16/02 A3017 RMK AO2 SLP216 T01610022
KOAK 162153Z 27006KT 10SM CLR 16/M02 A3019 RMK AO2 SLP223 T01611017
KOAK 162053Z 27005KT 10SM CLR 16/M02 A3022 RMK AO2 PRESFR SLP233 T01561017 58025
KOAK 161953Z 28006KT 10SM CLR 14/05 A3026 RMK AO2 SLP246 T01390050
KOAK 161853Z 23004KT 10SM CLR 11/04 A3029 RMK AO2 SLP256 T01110044
KOAK 161753Z 20004KT 10SM CLR 11/04 A3030 RMK AO2 SLP258 T01060039 10111 20033 50006